createdAt,value
2022-07-31T06:35:44.227Z,1.50
2022-07-31T06:38:48.563Z,1.38
2022-07-31T06:41:50.399Z,1.20
2022-07-31T06:44:46.002Z,1.70
2022-07-31T06:47:38.025Z,1.35
2022-07-31T06:50:15.256Z,1.65
2022-07-31T06:53:08.568Z,1.33
2022-07-31T06:55:47.168Z,1.00
2022-07-31T06:58:24.792Z,1.60
2022-07-31T07:01:03.315Z,1.33
2022-07-31T07:03:41.029Z,0.95
2022-07-31T07:06:18.745Z,1.20
2022-07-31T07:08:58.545Z,1.13
2022-07-31T07:11:36.634Z,1.23
2022-07-31T07:14:14.666Z,1.20
2022-07-31T07:16:52.959Z,1.40
2022-07-31T07:19:30.901Z,1.42
2022-07-31T07:22:09.717Z,1.80
2022-07-31T07:24:52.200Z,1.42
2022-07-31T07:27:34.141Z,2.47
2022-07-31T07:30:14.241Z,1.50
2022-07-31T07:32:51.844Z,1.20
2022-07-31T07:35:33.832Z,1.33
2022-07-31T07:38:18.140Z,1.23
2022-07-31T07:40:58.171Z,1.65
2022-07-31T07:43:35.955Z,1.10
2022-07-31T07:46:16.469Z,1.00
2022-07-31T07:49:00.830Z,1.38
2022-07-31T07:51:58.945Z,0.88
2022-07-31T07:54:50.619Z,0.98
2022-07-31T07:57:49.811Z,1.20
2022-07-31T08:00:52.084Z,1.38
2022-07-31T08:03:49.099Z,1.23
2022-07-31T08:06:29.969Z,0.93
2022-07-31T08:09:07.521Z,1.10
2022-07-31T08:12:17.608Z,1.40
2022-07-31T08:15:30.419Z,1.00
2022-07-31T08:18:20.307Z,1.00
2022-07-31T08:20:57.499Z,1.05
2022-07-31T08:23:34.603Z,1.15
2022-07-31T08:26:13.113Z,1.20
2022-07-31T08:28:51.270Z,1.63
2022-07-31T08:31:35.804Z,1.40
2022-07-31T08:34:39.030Z,0.73
2022-07-31T08:38:02.370Z,1.10
2022-07-31T08:40:17.129Z,0.90
2022-07-31T08:42:54.547Z,1.00
2022-07-31T08:45:33.890Z,1.10
2022-07-31T08:48:27.600Z,0.88
2022-07-31T08:51:06.770Z,1.17
2022-07-31T08:54:16.280Z,1.10
2022-07-31T08:56:54.383Z,1.10
2022-07-31T08:59:31.191Z,1.00
2022-07-31T09:02:08.588Z,1.10
2022-07-31T09:04:52.799Z,1.23
2022-07-31T09:07:31.279Z,1.00
2022-07-31T09:10:23.124Z,1.30
2022-07-31T09:13:01.244Z,1.05
2022-07-31T09:15:43.986Z,0.80
2022-07-31T09:21:11.547Z,0.95
2022-07-31T09:23:50.408Z,1.20
2022-07-31T09:26:37.597Z,1.13
2022-07-31T09:29:15.628Z,1.10
2022-07-31T09:31:52.464Z,1.17
2022-07-31T09:34:50.799Z,0.82
2022-07-31T09:37:30.849Z,0.80
2022-07-31T09:40:51.554Z,0.90
2022-07-31T09:44:09.477Z,0.88
2022-07-31T09:46:51.789Z,0.93
2022-07-31T09:49:35.385Z,1.20
2022-07-31T09:52:22.367Z,1.30
2022-07-31T09:55:15.905Z,1.17
2022-07-31T09:57:57.321Z,1.10
2022-07-31T10:00:36.774Z,0.98
2022-07-31T10:03:18.002Z,0.80
2022-07-31T10:05:55.729Z,0.95
2022-07-31T10:08:39.390Z,0.93
2022-07-31T10:11:37.659Z,1.08
2022-07-31T10:14:31.469Z,0.90
2022-07-31T10:17:09.689Z,1.20
2022-07-31T10:20:06.340Z,1.58
2022-07-31T10:23:19.866Z,1.20
2022-07-31T10:26:03.428Z,1.02
2022-07-31T10:28:44.809Z,0.95
2022-07-31T10:31:22.352Z,1.02
2022-07-31T10:33:59.504Z,0.85
2022-07-31T10:37:04.550Z,1.10
2022-07-31T10:40:29.548Z,0.90
2022-07-31T10:43:24.809Z,0.90
2022-07-31T10:46:37.269Z,0.73
2022-07-31T10:49:46.891Z,1.13
2022-07-31T10:52:42.137Z,1.00
2022-07-31T10:55:30.318Z,0.90
2022-07-31T10:58:25.471Z,1.02
2022-07-31T11:01:10.460Z,1.00
2022-07-31T11:04:16.568Z,0.90
2022-07-31T11:07:21.548Z,1.10
2022-07-31T11:10:19.896Z,0.90
2022-07-31T11:13:36.878Z,1.10
2022-07-31T11:16:29.368Z,1.02
2022-07-31T11:19:17.838Z,0.85
2022-07-31T11:21:57.719Z,0.95
2022-07-31T11:24:34.809Z,1.00
2022-07-31T11:27:11.819Z,0.70
2022-07-31T11:30:01.945Z,1.08
2022-07-31T11:32:40.714Z,1.30
2022-07-31T11:35:29.954Z,1.20
2022-07-31T11:38:06.702Z,1.10
2022-07-31T11:40:43.840Z,1.15
2022-07-31T11:43:26.091Z,1.00
2022-07-31T11:48:45.545Z,1.17
2022-07-31T11:51:26.520Z,1.00
2022-07-31T11:54:03.259Z,1.02
2022-07-31T11:56:40.310Z,1.20
2022-07-31T11:59:45.330Z,0.88
2022-07-31T12:02:16.713Z,0.95
2022-07-31T12:04:54.161Z,0.90
2022-07-31T12:07:34.640Z,0.73
2022-07-31T12:10:14.350Z,0.75
2022-07-31T12:12:51.812Z,1.08
2022-07-31T12:15:28.644Z,0.98
2022-07-31T12:18:08.159Z,1.30
2022-07-31T12:20:55.090Z,1.15
2022-07-31T12:23:44.230Z,1.20
2022-07-31T12:26:28.510Z,1.20
2022-07-31T12:29:09.449Z,1.00
2022-07-31T12:31:52.399Z,1.33
2022-07-31T12:34:35.587Z,1.20
2022-07-31T12:37:15.175Z,1.58
2022-07-31T12:40:01.492Z,2.10
2022-07-31T12:42:42.233Z,1.40
2022-07-31T12:45:20.686Z,0.90
2022-07-31T12:47:58.441Z,1.17
2022-07-31T12:50:37.357Z,1.27
2022-07-31T12:53:15.764Z,1.33
2022-07-31T12:55:56.061Z,1.10
2022-07-31T12:58:32.863Z,0.88
2022-07-31T13:01:09.968Z,1.10
2022-07-31T13:03:49.118Z,1.10
2022-07-31T13:06:26.442Z,1.10
2022-07-31T13:09:03.293Z,1.15
2022-07-31T13:11:46.836Z,1.10
2022-07-31T13:14:26.690Z,0.88
2022-07-31T13:17:04.095Z,0.93
2022-07-31T13:19:42.106Z,0.90
2022-07-31T13:22:19.135Z,1.20
2022-07-31T13:24:57.122Z,1.13
2022-07-31T13:27:37.455Z,1.08
2022-07-31T13:30:17.797Z,1.13
2022-07-31T13:32:55.861Z,1.17
2022-07-31T13:35:33.235Z,1.23
2022-07-31T13:38:10.763Z,1.00
2022-07-31T13:41:00.394Z,1.00
2022-07-31T13:43:59.822Z,2.50
2022-07-31T13:46:37.681Z,1.00
2022-07-31T13:49:16.529Z,1.20
2022-07-31T13:51:54.614Z,1.10
2022-07-31T13:54:32.368Z,0.80
2022-07-31T13:57:09.814Z,0.88
2022-07-31T13:59:51.346Z,1.02
2022-07-31T14:02:28.417Z,1.02
2022-07-31T14:05:08.476Z,0.73
2022-07-31T14:07:51.840Z,0.93
2022-07-31T14:10:31.486Z,1.30
2022-07-31T14:13:09.904Z,1.20
2022-07-31T14:15:50.655Z,1.00
2022-07-31T14:18:29.541Z,0.75
2022-07-31T14:21:10.982Z,0.98
2022-07-31T14:23:54.209Z,1.00
2022-07-31T14:26:33.262Z,2.00
2022-07-31T14:29:10.947Z,1.08
2022-07-31T14:31:51.048Z,1.10
2022-07-31T14:34:35.532Z,0.95
2022-07-31T14:37:15.394Z,1.02
2022-07-31T14:39:54.427Z,1.02
2022-07-31T14:42:31.694Z,1.00
2022-07-31T14:45:10.588Z,0.65
2022-07-31T14:47:54.215Z,1.10
2022-07-31T14:50:31.812Z,1.00
2022-07-31T14:53:12.895Z,1.05
2022-07-31T14:55:51.996Z,0.75
2022-07-31T14:58:30.160Z,1.17
2022-07-31T15:01:09.272Z,1.02
2022-07-31T15:03:49.565Z,1.58
2022-07-31T15:06:39.223Z,0.88
2022-07-31T15:09:25.713Z,0.93
2022-07-31T15:12:05.075Z,0.90
2022-07-31T15:14:44.795Z,1.20
2022-07-31T15:17:25.806Z,0.93
2022-07-31T15:20:08.130Z,1.40
2022-07-31T15:22:47.884Z,1.50
2022-07-31T15:25:29.938Z,1.20
2022-07-31T15:28:09.736Z,0.77
2022-07-31T15:30:49.627Z,0.90
2022-07-31T15:33:31.318Z,0.77
2022-07-31T15:36:15.361Z,0.90
2022-07-31T15:38:56.272Z,0.90
2022-07-31T15:41:37.352Z,1.75
2022-07-31T15:44:15.889Z,1.00
2022-07-31T15:46:55.471Z,1.00
2022-07-31T15:49:43.381Z,0.90
2022-07-31T15:52:26.435Z,0.95
2022-07-31T15:55:08.635Z,0.88
2022-07-31T15:57:48.222Z,1.00
2022-07-31T16:00:30.151Z,0.90
2022-07-31T16:03:08.866Z,0.90
2022-07-31T16:05:56.423Z,0.80
2022-07-31T16:08:39.612Z,0.98
2022-07-31T16:11:17.813Z,0.80
2022-07-31T16:13:56.629Z,0.90
2022-07-31T16:16:35.340Z,1.27
2022-07-31T16:19:14.277Z,0.95
2022-07-31T16:21:55.785Z,1.00
2022-07-31T16:24:40.635Z,1.08
2022-07-31T16:27:19.483Z,0.90
2022-07-31T16:29:59.722Z,0.80
2022-07-31T16:32:39.152Z,0.98
2022-07-31T16:35:17.001Z,1.23
2022-07-31T16:37:54.147Z,1.02
2022-07-31T16:40:34.788Z,0.85
2022-07-31T16:43:47.653Z,1.02
2022-07-31T16:46:08.856Z,1.38
2022-07-31T16:48:46.066Z,1.10
2022-07-31T16:51:23.166Z,1.00
2022-07-31T16:54:14.961Z,0.93
2022-07-31T16:56:56.999Z,1.00
2022-07-31T16:59:33.884Z,1.05
2022-07-31T17:02:31.210Z,1.10
2022-07-31T17:05:10.061Z,0.85
2022-07-31T17:07:48.030Z,1.42
2022-07-31T17:10:26.260Z,1.58
2022-07-31T17:13:07.622Z,1.20
2022-07-31T17:15:44.830Z,1.30
2022-07-31T17:18:26.341Z,1.00
2022-07-31T17:21:06.993Z,1.20
2022-07-31T17:23:51.076Z,1.20
2022-07-31T17:26:29.129Z,1.10
2022-07-31T17:29:08.932Z,1.13
2022-07-31T17:31:45.660Z,1.10
2022-07-31T17:34:22.917Z,1.27
2022-07-31T17:36:59.704Z,0.90
2022-07-31T17:39:36.937Z,1.30
2022-07-31T17:42:13.897Z,1.10
2022-07-31T17:44:55.944Z,1.05
2022-07-31T17:47:32.772Z,1.10
2022-07-31T17:50:11.743Z,1.30
2022-07-31T17:52:48.842Z,1.25
2022-07-31T17:55:26.220Z,2.38
2022-07-31T17:58:02.993Z,2.30
2022-07-31T18:00:43.284Z,1.30
2022-07-31T18:03:20.052Z,1.25
2022-07-31T18:05:57.932Z,1.20
2022-07-31T18:08:34.901Z,1.92
2022-07-31T18:11:12.075Z,1.30
2022-07-31T18:13:54.071Z,1.40
2022-07-31T18:16:35.510Z,1.60
2022-07-31T18:19:12.402Z,1.80
2022-07-31T18:21:49.561Z,1.50
2022-07-31T18:24:26.638Z,1.40
2022-07-31T18:27:04.177Z,1.50
2022-07-31T18:29:41.028Z,1.40
2022-07-31T18:32:24.882Z,1.40
2022-07-31T18:35:04.441Z,1.80
2022-07-31T18:37:41.699Z,1.10
2022-07-31T18:40:19.804Z,2.00
2022-07-31T18:42:57.619Z,1.35
2022-07-31T18:45:35.534Z,1.90
2022-07-31T18:48:23.749Z,1.40
2022-07-31T18:51:04.968Z,1.45
2022-07-31T18:53:42.758Z,1.70
2022-07-31T18:56:20.379Z,1.52
2022-07-31T18:58:58.313Z,1.50
2022-07-31T19:01:35.894Z,1.60
2022-07-31T19:04:15.740Z,1.45
2022-07-31T19:06:54.435Z,1.50
2022-07-31T19:09:31.769Z,1.63
2022-07-31T19:12:10.474Z,1.70
2022-07-31T19:14:47.884Z,1.75
2022-07-31T19:17:24.641Z,1.83
2022-07-31T19:20:52.994Z,1.85
2022-07-31T19:23:21.632Z,1.75
2022-07-31T19:26:03.560Z,1.90
2022-07-31T19:28:43.765Z,2.42
2022-07-31T19:31:21.208Z,2.00
2022-07-31T19:33:58.112Z,1.90
2022-07-31T19:36:37.943Z,2.00
2022-07-31T19:39:15.014Z,1.90
2022-07-31T19:42:11.376Z,1.90
2022-07-31T19:44:49.012Z,2.00
2022-07-31T19:47:26.043Z,2.10
2022-07-31T19:50:02.898Z,2.20
2022-07-31T19:52:42.785Z,2.30
2022-07-31T19:55:19.641Z,2.13
2022-07-31T19:57:56.912Z,1.85
2022-07-31T20:00:34.052Z,2.40
2022-07-31T20:03:11.585Z,2.70
2022-07-31T20:05:48.665Z,2.65
